Pagrindinis puslapis
METAR-TAF:

METAR-TAF

Oro uostai :

Savanaketas, Laosas

platuma: 16-33-24N, ilguma: 104-45-34E, Aukštis: 155 m

Dabartinis oras

Ataskaita buvo paskelbta 5 valandos ir 47 minutes, ne 12:00 UTC
Vėjas 4 kt iš Rytų/Pietryčių
Temperatūra 29°C
Drėgmė 79%
Slėgis 1006 hPa
Matomumas: 6000 m
Mažai debesys ne aukštis 1600 ft, Liūtiniai kamuoliniai debesys.
Išsisklaidę debesys ne aukštis 4000 ft
Išsisklaidę debesys ne aukštis 10000 ft
perkūnija

METAR: VLSK 301200Z 12004KT 6000 TS FEW016CB SCT040 SCT100 29/25 Q1006 NOSIG

Laikas: 00:47 (17:47 UTC)

Prognozė

Ataskaita buvo paskelbta 6 valandos ir 47 minutes, ne 11:00 UTC
Prognozė galioja nuo 30 metu 12 UTC su 01 metu 12 UTC
Vėjas 4 kt iš Pietvakarių
Matomumas: 8000 m
Išsisklaidę debesys ne aukštis 2000 ft
Su prošvaistėmis ne aukštis 10000 ft
Laikinai
nuo 30 metu 14 UTC su 30 metu 20 UTC
Matomumas: 3000 m
Išsisklaidę debesys ne aukštis 4000 ft
Su prošvaistėmis ne aukštis 10000 ft
rūkana

TAF: VLSK 301100Z 3012/0112 22004KT 8000 SCT020 BKN100 TEMPO 3014/3020 3000 BR SCT040 BKN100

Orai ataskaitas ir orų prognozės (METAR, TAF).

turimą stotys yra geltonos ir raudonos taškus žemėlapyje.

Perkelti pele per norėdami pamatyti stoties vardą.

Tada spustelėkite, norėdami matyti oro stebėjimo ir prognozės.

Norėdami pakeisti žemėlapį: spustelėkite ant žalios mygtukų su juodo kryžiaus žemyn,; žalią mygtuką su brūkšneliu, jei norite nutolinti; arba žalių rodyklių gretimoms žemėlapius.


METAR-TAF: